»·PEaware :: N8625C KSMX-KBFL

N8625C :: KSMX-KBFL

FLIGHT INFORMATION

Flight Status: Arrived
Operator: Privately registered:
United States
More flights under this callsign
Pilot: Thiago S. (19132)
Aircraft: CESSNA 182 SKYLANE
(C182)
More flights by this aircraft type
Origin: KSMX Santa Maria Pub/Capt Hancock
United States
Destination: KBFL Meadows
United States
More flights between these airports :: More routes between these airports
Route: +FLW
File this flight plan on PilotEdge
Remarks:
Altitude:
(Current/Filed)
7,500ft
Speed:
(Current/Filed)
120kts
Departed: 08-May-18 03:37 PM
Arrived: 08-May-18 04:18 PM
Distance/Time
Traveled:
76nm/0:41
Distance/Time
To Go:
Arrived

Flight Plot

Page will automatically refresh every two minutes.


Map Options




Map Legend


Flown Route
Filed Route
Departure Airport
Arrival Airport
Navaid (VOR, NDB)
Fix

Horizontal Profiles

Position Reports

Time Latitude Longitude Heading Altitude Ground
Speed
08-May-18 15:19 34.900006 -120.450063 230 264ft 0kts
08-May-18 15:20 34.900006 -120.450063 230 264ft 0kts
08-May-18 15:21 34.900006 -120.450063 230 264ft 0kts
08-May-18 15:22 34.900006 -120.450063 230 264ft 0kts
08-May-18 15:23 34.900006 -120.450063 230 264ft 0kts
08-May-18 15:24 34.900006 -120.450063 230 264ft 0kts
08-May-18 15:25 34.900006 -120.450063 230 264ft 0kts
08-May-18 15:26 34.900006 -120.450063 230 264ft 0kts
08-May-18 15:27 34.900006 -120.450063 230 264ft 0kts
08-May-18 15:28 34.900006 -120.450063 230 264ft 0kts
08-May-18 15:29 34.900006 -120.450064 230 264ft 0kts
08-May-18 15:30 34.900003 -120.450068 230 264ft 0kts
08-May-18 15:31 34.900000 -120.450073 230 264ft 0kts
08-May-18 15:32 34.898400 -120.450129 137 264ft 9kts
08-May-18 15:33 34.894764 -120.445867 154 264ft 16kts
08-May-18 15:34 34.893912 -120.445745 159 264ft 0kts
08-May-18 15:35 34.893907 -120.445742 159 264ft 0kts
08-May-18 15:36 34.893808 -120.445740 182 264ft 4kts
08-May-18 15:37 34.898672 -120.453119 313 499ft 78kts
08-May-18 15:38 34.915545 -120.467394 7 1476ft 83kts
08-May-18 15:39 34.927177 -120.442271 69 2110ft 92kts
08-May-18 15:40 34.932996 -120.415075 69 2798ft 80kts
08-May-18 15:41 34.939042 -120.389388 66 3442ft 75kts
08-May-18 15:42 34.940606 -120.383439 66 3566ft 77kts
08-May-18 15:43 34.953085 -120.341128 66 4458ft 76kts
08-May-18 15:44 34.961461 -120.317168 68 4901ft 78kts
08-May-18 15:45 34.971142 -120.292208 68 5500ft 87kts
08-May-18 15:46 34.981906 -120.264300 72 6039ft 103kts
08-May-18 15:47 34.990113 -120.229539 77 6624ft 109kts
08-May-18 15:48 34.994965 -120.194279 78 7162ft 126kts
08-May-18 15:49 35.002205 -120.151853 70 7516ft 139kts
08-May-18 15:50 35.014289 -120.105753 66 7538ft 146kts
08-May-18 15:51 35.027266 -120.059481 62 7367ft 140kts
08-May-18 15:52 35.045443 -120.017952 53 7238ft 132kts
08-May-18 15:53 35.065325 -119.981744 63 7431ft 118kts
08-May-18 15:54 35.077419 -119.948189 70 7611ft 107kts
08-May-18 15:55 35.081342 -119.913032 84 8082ft 100kts
08-May-18 15:56 35.086545 -119.880854 62 8565ft 94kts
08-May-18 15:57 35.095036 -119.850870 59 9047ft 96kts
08-May-18 15:58 35.107217 -119.822561 49 9482ft 96kts
08-May-18 15:59 35.121363 -119.790955 51 9692ft 118kts
08-May-18 16:00 35.136675 -119.748297 61 9411ft 155kts
08-May-18 16:01 35.154893 -119.701554 60 9415ft 152kts
08-May-18 16:02 35.175686 -119.653869 60 8960ft 168kts
08-May-18 16:03 35.197250 -119.603239 65 8547ft 167kts
08-May-18 16:04 35.217996 -119.552879 67 8103ft 163kts
08-May-18 16:05 35.238034 -119.501857 69 7488ft 171kts
08-May-18 16:06 35.253560 -119.446983 69 7013ft 169kts
08-May-18 16:07 35.268409 -119.401144 61 6641ft 165kts
08-May-18 16:08 35.286235 -119.354650 60 6320ft 161kts
08-May-18 16:09 35.304929 -119.305228 60 6007ft 157kts
08-May-18 16:10 35.322579 -119.257871 61 5479ft 145kts
08-May-18 16:11 35.339088 -119.214505 61 4812ft 138kts
08-May-18 16:12 35.356168 -119.173197 58 4206ft 134kts
08-May-18 16:13 35.375119 -119.134184 58 3649ft 133kts
08-May-18 16:14 35.397347 -119.098740 53 2832ft 132kts
08-May-18 16:15 35.419812 -119.069848 83 1660ft 101kts
08-May-18 16:16 35.406191 -119.046887 128 1278ft 83kts
08-May-18 16:17 35.417427 -119.040048 322 735ft 63kts
08-May-18 16:18 35.427083 -119.051543 315 510ft 8kts
08-May-18 16:19 35.427932 -119.051540 43 510ft 0kts
08-May-18 16:20 35.427937 -119.051535 44 510ft 0kts
08-May-18 16:21 35.431060 -119.052773 331 510ft 16kts
08-May-18 16:22 35.434137 -119.051914 51 510ft 16kts
08-May-18 16:23 35.434833 -119.051201 158 510ft 0kts
08-May-18 16:24 35.434833 -119.051201 158 510ft 0kts
08-May-18 16:25 35.434833 -119.051201 158 510ft 0kts
08-May-18 16:26 35.434833 -119.051201 158 510ft 0kts
08-May-18 16:27 35.434833 -119.051201 158 510ft 0kts
08-May-18 16:28 35.434833 -119.051201 158 510ft 0kts
08-May-18 16:29 35.434833 -119.051201 158 510ft 0kts
08-May-18 16:30 35.434833 -119.051201 158 510ft 0kts
08-May-18 16:31 35.434833 -119.051201 158 510ft 0kts
08-May-18 16:32 35.434833 -119.051201 158 510ft 0kts

Navigation Log

Ident Type
Flight plan parsing failed, navigation log unavailable